Time;durP1;ratioP1;P1;durP2;ratioP2;P2;SDS_P1;SDS_P2;PMS_P1;PMS_P2;Temp;Humidity;BMP_temperature;BMP_pressure;BME280_temperature;BME280_humidity;BME280_pressure;Samples;Min_cycle;Max_cycle;Signal;HPM_P1;HPM_P2
2021/08/06 00:01:03;;;;;;;;;2.00;1.00;;;;;20.57;65.05;99964.34;5000221;28;45309;-77
2021/08/06 00:03:28;;;;;;;;;3.75;2.00;;;;;20.63;65.25;99966.56;4995134;28;45637;-77
2021/08/06 00:05:54;;;;;;;;;1.00;1.00;;;;;20.66;65.05;99971.72;4992572;28;45300;-77
2021/08/06 00:08:23;;;;;;;;;2.50;1.00;;;;;20.60;64.95;99964.09;4999551;28;45334;-76
2021/08/06 00:10:48;;;;;;;;;1.50;1.50;;;;;20.57;64.91;99966.22;5000125;28;45308;-77
2021/08/06 00:13:14;;;;;;;;;2.00;2.00;;;;;20.59;64.65;99969.66;5003248;28;45154;-76
2021/08/06 00:15:39;;;;;;;;;1.00;1.00;;;;;20.55;64.45;99975.34;5002138;28;48496;-77
2021/08/06 00:18:05;;;;;;;;;1.25;1.25;;;;;20.57;64.83;99985.19;5001893;28;45152;-76
2021/08/06 00:20:30;;;;;;;;;1.25;1.00;;;;;20.52;64.42;99970.16;5003463;28;45245;-78
2021/08/06 00:22:56;;;;;;;;;4.50;1.75;;;;;20.48;65.13;99962.44;5010783;28;45271;-77
2021/08/06 00:25:21;;;;;;;;;2.00;1.50;;;;;20.54;64.63;99970.03;5002928;28;45304;-76
2021/08/06 00:27:47;;;;;;;;;1.50;1.50;;;;;20.59;64.45;99977.78;5003286;28;45271;-77
2021/08/06 00:30:12;;;;;;;;;1.00;1.00;;;;;20.58;64.90;99976.94;5001786;28;45779;-77
2021/08/06 00:32:37;;;;;;;;;1.00;1.00;;;;;20.56;64.42;99981.59;5001510;28;45601;-77
2021/08/06 00:35:03;;;;;;;;;3.00;2.00;;;;;20.54;64.47;99964.63;5002585;28;46514;-78
2021/08/06 00:37:29;;;;;;;;;0.25;0.25;;;;;20.57;64.49;99975.19;5001689;28;45422;-77
2021/08/06 00:39:54;;;;;;;;;2.00;1.00;;;;;20.47;64.55;99969.72;5003167;28;45394;-77
2021/08/06 00:42:19;;;;;;;;;3.00;2.25;;;;;20.44;64.99;99958.28;5002795;28;45498;-77
2021/08/06 00:44:45;;;;;;;;;3.75;1.00;;;;;20.48;64.77;99967.84;5002820;28;46446;-77
2021/08/06 00:47:10;;;;;;;;;3.00;2.00;;;;;20.53;64.77;99979.16;5002915;28;45390;-77
2021/08/06 00:49:35;;;;;;;;;8.50;8.00;;;;;20.47;65.20;99963.44;5002785;28;45318;-77
2021/08/06 00:52:02;;;;;;;;;14.00;14.00;;;;;20.53;64.84;99979.16;5014404;28;45486;-77
2021/08/06 00:54:27;;;;;;;;;8.75;8.25;;;;;20.50;64.65;99969.44;5006052;28;45437;-77
2021/08/06 00:56:52;;;;;;;;;4.00;4.00;;;;;20.53;64.91;99982.75;5002833;28;45429;-77
2021/08/06 00:59:18;;;;;;;;;3.25;3.00;;;;;20.52;64.58;99972.03;5001583;28;45437;-77
2021/08/06 01:01:49;;;;;;;;;4.50;2.00;;;;;20.52;64.86;99972.03;5002819;28;45401;-76
2021/08/06 01:04:32;;;;;;;;;2.25;2.25;;;;;20.38;64.46;99959.69;5013742;28;45917;-77
2021/08/06 01:07:09;;;;;;;;;2.25;2.00;;;;;20.44;64.40;99960.97;5002466;28;45371;-77
2021/08/06 01:09:51;;;;;;;;;4.75;2.00;;;;;20.49;64.31;99972.28;5001092;28;45347;-77
2021/08/06 01:12:24;;;;;;;;;2.75;2.75;;;;;20.50;64.06;99980.28;5002394;28;45454;-77
2021/08/06 01:14:50;;;;;;;;;1.00;1.00;;;;;20.48;64.52;99984.13;5002539;28;45232;-77
2021/08/06 01:17:17;;;;;;;;;2.00;1.25;;;;;20.44;64.27;99972.69;5002170;28;45479;-77
2021/08/06 01:19:52;;;;;;;;;3.00;1.50;;;;;20.42;64.52;99977.38;5001307;28;45347;-77
2021/08/06 01:22:25;;;;;;;;;1.00;1.00;;;;;20.39;64.45;99977.63;5002136;28;45442;-77
2021/08/06 01:25:18;;;;;;;;;1.00;1.00;;;;;20.43;64.35;99972.81;5002370;28;46283;-77
2021/08/06 01:27:47;;;;;;;;;3.50;1.25;;;;;20.36;64.40;99962.53;4989216;28;45165;-77
2021/08/06 01:30:13;;;;;;;;;1.25;1.25;;;;;20.38;64.40;99967.81;4997924;28;45261;-77
2021/08/06 01:32:39;;;;;;;;;1.00;1.00;;;;;20.46;64.22;99977.97;5001705;28;45820;-77
2021/08/06 01:35:08;;;;;;;;;1.25;1.00;;;;;20.33;64.15;99964.59;5000591;28;47402;-77
2021/08/06 01:37:33;;;;;;;;;1.00;1.00;;;;;20.45;64.73;99978.97;5002231;28;45523;-77
2021/08/06 01:40:03;;;;;;;;;1.00;1.00;;;;;20.42;64.28;99974.66;5002126;28;45257;-77
2021/08/06 01:42:46;;;;;;;;;1.00;1.00;;;;;20.43;64.32;99979.13;5002190;28;45465;-77
2021/08/06 01:45:16;;;;;;;;;1.00;1.00;;;;;20.36;64.48;99965.22;5001842;28;45474;-77
2021/08/06 01:47:46;;;;;;;;;1.75;1.00;;;;;20.30;64.07;99957.63;5001907;28;45363;-77
2021/08/06 01:50:15;;;;;;;;;1.00;1.00;;;;;20.40;64.59;99973.06;5001681;28;45475;-77
2021/08/06 01:52:49;;;;;;;;;1.00;1.00;;;;;20.27;64.16;99955.16;5014179;28;45430;-77
2021/08/06 01:55:16;;;;;;;;;1.25;1.00;;;;;20.31;64.78;99963.88;5013173;28;48408;-77
2021/08/06 01:57:46;;;;;;;;;1.00;1.00;;;;;20.34;64.52;99972.59;5001867;28;45412;-77
2021/08/06 02:00:12;;;;;;;;;1.00;1.00;;;;;20.39;64.01;99977.63;5000626;28;45253;-77
2021/08/06 02:02:38;;;;;;;;;1.50;1.50;;;;;20.39;64.62;99976.78;5000324;28;45487;-77
2021/08/06 02:05:04;;;;;;;;;1.75;1.00;;;;;20.35;64.37;99968.91;5001454;28;45278;-77
2021/08/06 02:07:29;;;;;;;;;1.00;1.00;;;;;20.37;64.31;99979.63;5001530;28;45538;-77
2021/08/06 02:09:55;;;;;;;;;2.75;2.75;;;;;20.28;64.16;99959.59;5001662;28;45369;-77
2021/08/06 02:12:20;;;;;;;;;3.00;1.50;;;;;20.33;64.27;99979.03;5000309;28;45851;-78
2021/08/06 02:14:48;;;;;;;;;2.25;2.25;;;;;20.31;64.11;99977.44;5001431;28;45316;-76
2021/08/06 02:17:14;;;;;;;;;2.00;2.00;;;;;20.27;64.51;99979.56;5001530;28;45409;-77
2021/08/06 02:19:42;;;;;;;;;3.00;1.00;;;;;20.16;64.56;99956.09;5000102;28;45212;-77
2021/08/06 02:22:09;;;;;;;;;1.00;1.00;;;;;20.26;64.44;99983.25;5011091;28;45561;-77
2021/08/06 02:24:37;;;;;;;;;1.25;1.25;;;;;20.14;64.23;99978.88;5010770;28;45383;-76
2021/08/06 02:27:04;;;;;;;;;1.75;1.75;;;;;20.19;64.16;99976.63;5001263;28;45478;-76
2021/08/06 02:29:30;;;;;;;;;4.00;2.00;;;;;20.24;64.23;99990.66;5001429;28;45314;-77
2021/08/06 02:32:00;;;;;;;;;2.00;2.00;;;;;20.11;63.70;99965.59;5000876;28;45151;-77
2021/08/06 02:34:27;;;;;;;;;3.25;1.50;;;;;20.29;64.16;99988.41;4999371;28;46142;-77
2021/08/06 02:36:53;;;;;;;;;1.00;1.00;;;;;20.27;63.88;100003.94;5000859;28;45385;-76
2021/08/06 02:39:22;;;;;;;;;1.00;1.00;;;;;20.13;64.11;99979.84;5001457;28;45303;-77
2021/08/06 02:41:47;;;;;;;;;1.75;1.75;;;;;20.20;63.95;99991.91;5001029;28;45303;-77
2021/08/06 02:44:13;;;;;;;;;2.25;2.25;;;;;19.97;63.61;99967.59;5001019;28;45352;-77
2021/08/06 02:46:39;;;;;;;;;3.75;2.00;;;;;20.22;63.95;100000.75;4999697;28;45447;-76
2021/08/06 02:49:05;;;;;;;;;2.00;2.00;;;;;20.22;63.77;100003.47;5001239;28;45349;-77
2021/08/06 02:51:31;;;;;;;;;1.25;1.25;;;;;20.16;63.71;100002.16;5000662;28;45268;-77
2021/08/06 02:53:56;;;;;;;;;1.50;1.25;;;;;20.14;63.53;100001.41;5000696;28;45898;-77
2021/08/06 02:56:22;;;;;;;;;2.00;1.25;;;;;20.17;63.37;99998.44;5001019;28;45481;-77
2021/08/06 02:58:47;;;;;;;;;1.25;0.75;;;;;20.06;63.68;99982.22;5001154;28;45260;-77
2021/08/06 03:01:12;;;;;;;;;1.50;1.00;;;;;20.16;63.61;100018.41;5000894;28;45425;-77
2021/08/06 03:03:38;;;;;;;;;1.50;1.50;;;;;20.15;63.15;100013.13;5000364;28;45462;-77
2021/08/06 03:06:03;;;;;;;;;1.75;1.75;;;;;19.99;63.36;100002.69;4999482;28;45269;-77
2021/08/06 03:08:28;;;;;;;;;1.50;1.00;;;;;20.09;63.33;100008.22;5000677;28;45297;-77
2021/08/06 03:10:54;;;;;;;;;1.25;0.00;;;;;20.04;63.37;100008.59;5000687;28;45231;-76
2021/08/06 03:13:19;;;;;;;;;2.50;1.00;;;;;19.97;63.34;99999.25;5000578;28;45471;-77
2021/08/06 03:15:44;;;;;;;;;2.25;1.00;;;;;19.99;63.07;100017.09;5000694;28;45224;-77
2021/08/06 03:18:11;;;;;;;;;2.00;1.00;;;;;20.07;63.32;100021.88;4999301;28;45334;-78
2021/08/06 03:20:37;;;;;;;;;1.25;1.00;;;;;19.82;63.23;99977.03;5000460;28;45533;-77
2021/08/06 03:23:02;;;;;;;;;1.25;1.00;;;;;19.97;63.04;100008.22;4999160;28;47203;-77
2021/08/06 03:25:28;;;;;;;;;0.00;0.00;;;;;20.07;63.24;100016.47;5000110;28;45209;-77
2021/08/06 03:27:55;;;;;;;;;1.00;1.00;;;;;20.01;62.97;100005.28;4999425;28;45717;-78
2021/08/06 03:30:20;;;;;;;;;1.25;1.00;;;;;20.03;62.96;100027.66;5000217;28;45497;-77
2021/08/06 03:32:46;;;;;;;;;1.00;1.00;;;;;20.01;62.96;100026.94;5000166;28;45433;-77
2021/08/06 03:35:13;;;;;;;;;1.00;1.00;;;;;20.01;62.95;100022.38;5000176;28;45259;-77
2021/08/06 03:37:39;;;;;;;;;1.00;1.00;;;;;20.01;62.99;100035.06;5000665;28;45446;-77
2021/08/06 03:40:05;;;;;;;;;1.00;1.00;;;;;19.99;62.67;100030.63;5000221;28;45233;-77
2021/08/06 03:42:30;;;;;;;;;1.75;1.00;;;;;19.85;63.00;100016.53;5000226;28;46316;-77
2021/08/06 03:44:56;;;;;;;;;1.00;1.00;;;;;19.97;62.86;100035.31;5000084;28;45321;-77
2021/08/06 03:47:21;;;;;;;;;2.25;1.00;;;;;19.86;62.81;100018.25;4999338;28;45291;-77
2021/08/06 03:49:46;;;;;;;;;1.25;1.00;;;;;19.97;62.79;100037.19;4999736;28;45523;-77
2021/08/06 03:52:12;;;;;;;;;2.00;1.00;;;;;19.89;62.86;100013.44;5008496;28;46427;-77
2021/08/06 03:54:37;;;;;;;;;0.75;0.75;;;;;19.95;62.80;100036.47;4991038;28;45275;-77
2021/08/06 03:57:04;;;;;;;;;0.00;0.00;;;;;19.89;62.80;100023.41;5000100;28;45235;-77
2021/08/06 03:59:30;;;;;;;;;3.00;1.00;;;;;19.90;62.60;100039.53;4998779;28;45380;-77
2021/08/06 04:01:55;;;;;;;;;2.75;1.75;;;;;19.94;62.88;100050.97;4999859;28;45294;-76
2021/08/06 04:04:20;;;;;;;;;3.00;0.00;;;;;19.86;62.86;100045.31;4999676;28;45373;-77
2021/08/06 04:06:46;;;;;;;;;3.50;2.00;;;;;19.83;62.78;100046.47;4999657;28;45308;-77
2021/08/06 04:09:11;;;;;;;;;1.75;1.00;;;;;19.90;62.44;100055.78;4999923;28;45455;-77
2021/08/06 04:11:36;;;;;;;;;0.75;0.75;;;;;19.86;62.78;100057.00;4999696;28;45474;-77
2021/08/06 04:14:02;;;;;;;;;1.00;1.00;;;;;19.85;62.50;100059.88;4999828;28;45268;-77
2021/08/06 04:16:27;;;;;;;;;0.25;0.25;;;;;19.51;62.36;100003.91;4999867;28;45329;-76
2021/08/06 04:18:53;;;;;;;;;1.25;1.25;;;;;19.87;62.72;100068.72;4999869;28;45385;-76
2021/08/06 04:21:19;;;;;;;;;0.00;0.00;;;;;19.86;62.49;100070.56;4999524;28;45431;-76
2021/08/06 04:23:44;;;;;;;;;0.50;0.50;;;;;19.86;62.10;100073.25;4999788;28;45320;-76
2021/08/06 04:26:10;;;;;;;;;1.50;0.50;;;;;19.82;62.75;100060.97;4999722;28;45336;-76
2021/08/06 04:28:35;;;;;;;;;0.75;0.75;;;;;19.86;62.39;100081.38;5000077;28;46508;-76
2021/08/06 04:31:04;;;;;;;;;3.00;1.00;;;;;19.88;62.28;100078.56;4998177;28;46018;-76
2021/08/06 04:33:30;;;;;;;;;1.75;1.75;;;;;19.85;62.37;100082.38;4999271;28;45348;-76
2021/08/06 04:35:56;;;;;;;;;1.25;1.00;;;;;19.82;62.22;100070.94;4986562;28;45257;-76
2021/08/06 04:38:22;;;;;;;;;1.75;0.00;;;;;19.80;62.02;100080.06;4999495;28;45443;-76
2021/08/06 04:40:47;;;;;;;;;2.00;1.00;;;;;19.84;62.27;100096.06;4999848;28;46272;-76
2021/08/06 04:43:12;;;;;;;;;0.00;0.00;;;;;19.77;62.11;100085.72;4999496;28;45311;-77
2021/08/06 04:45:38;;;;;;;;;1.25;1.00;;;;;19.66;61.70;100072.16;4999567;28;45378;-77
2021/08/06 04:48:04;;;;;;;;;3.00;1.50;;;;;19.82;61.91;100089.91;4998112;28;45309;-77
2021/08/06 04:50:30;;;;;;;;;0.00;0.00;;;;;19.78;61.90;100087.44;4995452;28;46171;-76
2021/08/06 04:52:56;;;;;;;;;0.00;0.00;;;;;19.79;61.99;100094.56;4999201;28;45570;-76
2021/08/06 04:55:23;;;;;;;;;2.00;0.75;;;;;19.68;61.52;100091.88;4997980;28;45372;-76
2021/08/06 04:57:48;;;;;;;;;1.00;1.00;;;;;19.57;61.52;100072.91;5000324;28;45418;-77
2021/08/06 05:00:14;;;;;;;;;2.00;1.00;;;;;19.69;61.95;100087.28;5002683;28;46267;-76
2021/08/06 05:02:39;;;;;;;;;4.25;1.00;;;;;19.70;61.78;100089.88;5003691;28;45252;-76
2021/08/06 05:05:05;;;;;;;;;2.00;1.00;;;;;19.71;61.77;100097.03;5002676;28;45362;-76
2021/08/06 05:07:30;;;;;;;;;2.75;0.50;;;;;19.62;61.58;100084.22;5002367;28;45498;-76
2021/08/06 05:09:57;;;;;;;;;0.00;0.00;;;;;19.58;61.56;100070.06;5002536;28;45393;-76
2021/08/06 05:12:23;;;;;;;;;1.00;1.00;;;;;19.75;61.67;100100.38;4989669;28;45478;-76
2021/08/06 05:14:48;;;;;;;;;0.00;0.00;;;;;19.66;61.57;100093.81;5002568;28;45419;-76
2021/08/06 05:17:13;;;;;;;;;1.00;0.75;;;;;19.73;61.78;100105.00;5002648;28;45321;-76
2021/08/06 05:19:39;;;;;;;;;1.00;1.00;;;;;19.69;61.47;100096.28;5002186;28;46365;-76
2021/08/06 05:22:04;;;;;;;;;0.00;0.00;;;;;19.61;61.65;100087.91;4989417;28;45193;-76
2021/08/06 05:24:30;;;;;;;;;1.50;1.00;;;;;19.76;61.49;100107.50;5001874;28;45489;-76
2021/08/06 05:26:56;;;;;;;;;2.00;1.00;;;;;19.78;61.59;100110.97;5001632;28;45280;-76
2021/08/06 05:29:21;;;;;;;;;2.00;1.00;;;;;19.70;61.56;100102.56;5001128;28;46063;-76
2021/08/06 05:31:46;;;;;;;;;0.75;0.75;;;;;19.77;61.52;100111.94;5001447;28;45347;-76
2021/08/06 05:34:12;;;;;;;;;2.00;2.00;;;;;19.68;61.57;100097.28;5009851;28;45647;-77
2021/08/06 05:36:37;;;;;;;;;1.50;0.25;;;;;19.73;61.91;100105.00;5007141;28;45148;-77
2021/08/06 05:39:03;;;;;;;;;0.75;0.75;;;;;19.73;61.84;100105.00;5002137;28;46541;-76
2021/08/06 05:41:28;;;;;;;;;1.00;0.00;;;;;19.56;61.83;100085.59;5002105;28;45224;-77
2021/08/06 05:43:53;;;;;;;;;0.75;0.75;;;;;19.70;61.98;100105.28;5002389;28;45406;-77
2021/08/06 05:46:19;;;;;;;;;1.00;1.00;;;;;19.65;61.91;100102.94;5002164;28;45505;-76
2021/08/06 05:48:44;;;;;;;;;1.00;0.00;;;;;19.63;61.99;100104.91;5001913;28;46934;-76
2021/08/06 05:51:10;;;;;;;;;1.00;1.00;;;;;19.57;62.06;100083.75;5001602;28;45386;-77
2021/08/06 05:53:35;;;;;;;;;0.50;0.00;;;;;19.67;61.81;100103.66;5000757;28;45534;-77
2021/08/06 05:56:01;;;;;;;;;1.00;0.50;;;;;19.67;61.71;100108.22;5001524;28;45359;-77
2021/08/06 05:58:29;;;;;;;;;2.50;1.00;;;;;19.61;61.85;100101.44;5002092;28;46065;-76
2021/08/06 06:00:55;;;;;;;;;1.50;1.00;;;;;19.67;61.66;100121.75;5001778;28;45262;-76
2021/08/06 06:03:20;;;;;;;;;1.00;1.00;;;;;19.63;61.77;100122.00;5001778;28;45490;-76
2021/08/06 06:05:46;;;;;;;;;1.00;1.00;;;;;19.66;61.86;100117.31;5006370;28;45320;-76
2021/08/06 06:08:12;;;;;;;;;0.75;0.75;;;;;19.67;62.04;100121.75;5003784;28;45417;-76
2021/08/06 06:10:37;;;;;;;;;1.00;1.00;;;;;19.67;62.12;100125.31;5000522;28;45260;-75
2021/08/06 06:13:03;;;;;;;;;1.75;1.00;;;;;19.63;62.03;100111.19;5001309;28;45341;-76
2021/08/06 06:15:29;;;;;;;;;0.00;0.00;;;;;19.46;62.16;100073.75;5002114;28;45332;-77
2021/08/06 06:17:55;;;;;;;;;1.00;1.00;;;;;19.67;62.61;100117.19;5001207;28;47144;-78
2021/08/06 06:20:20;;;;;;;;;3.25;1.00;;;;;19.42;62.00;100085.81;5000091;28;45480;-88
2021/08/06 06:22:46;;;;;;;;;0.00;0.00;;;;;19.70;62.04;100126.94;5000253;28;45460;-86
2021/08/06 06:25:13;;;;;;;;;3.00;0.75;;;;;19.69;62.14;100117.94;5001311;28;45753;-84
2021/08/06 06:27:58;;;;;;;;;0.50;0.00;;;;;19.72;62.20;100130.38;5001325;28;45419;-86
2021/08/06 06:30:26;;;;;;;;;1.75;1.00;;;;;19.65;62.02;100112.91;4998541;28;45439;-87
2021/08/06 06:32:53;;;;;;;;;2.50;1.00;;;;;19.68;62.23;100115.34;4998579;28;45442;-85
2021/08/06 06:35:19;;;;;;;;;1.75;0.00;;;;;19.68;62.14;100112.63;4999673;28;45734;-88
2021/08/06 06:37:45;;;;;;;;;1.00;0.25;;;;;19.59;62.06;100104.25;4999717;28;47524;-84
2021/08/06 06:40:12;;;;;;;;;1.00;1.00;;;;;19.71;62.17;100123.22;4999894;28;45845;-81
2021/08/06 06:42:37;;;;;;;;;2.00;1.00;;;;;19.65;61.96;100121.03;4994556;28;45552;-77
2021/08/06 06:45:03;;;;;;;;;1.00;0.00;;;;;19.68;62.34;100134.28;4999613;28;45352;-77
2021/08/06 06:47:39;;;;;;;;;0.75;0.25;;;;;19.73;62.23;100145.63;5000666;28;46118;-81
2021/08/06 06:50:09;;;;;;;;;1.00;1.00;;;;;19.73;62.05;100149.22;4998793;28;45450;-78
2021/08/06 06:52:35;;;;;;;;;1.00;0.00;;;;;19.76;62.03;100150.81;4991708;28;46740;-81
2021/08/06 06:55:00;;;;;;;;;0.00;0.00;;;;;19.76;61.77;100150.81;4985531;28;45427;-81
2021/08/06 06:57:26;;;;;;;;;2.50;0.75;;;;;19.72;61.89;100146.63;4997060;28;45351;-80
2021/08/06 06:59:51;;;;;;;;;1.00;1.00;;;;;19.71;61.92;100155.72;4996147;28;45456;-80
2021/08/06 07:02:16;;;;;;;;;1.00;0.00;;;;;19.71;62.24;100167.44;4999694;28;45334;-80
2021/08/06 07:04:42;;;;;;;;;2.00;1.00;;;;;19.70;61.95;100146.75;4995393;28;45897;-80
2021/08/06 07:07:07;;;;;;;;;0.25;0.25;;;;;19.69;62.18;100146.88;4999619;28;46599;-80
2021/08/06 07:09:33;;;;;;;;;1.50;1.00;;;;;19.75;62.08;100149.97;4995623;28;45343;-80
2021/08/06 07:12:01;;;;;;;;;2.00;1.00;;;;;19.64;62.60;100133.69;4984957;28;45606;-81
2021/08/06 07:14:26;;;;;;;;;0.50;0.50;;;;;19.63;61.86;100134.69;4999207;28;45341;-78
2021/08/06 07:16:52;;;;;;;;;1.00;1.00;;;;;19.55;62.06;100123.59;4997074;28;45771;-78
2021/08/06 07:19:17;;;;;;;;;0.00;0.00;;;;;19.54;61.69;100122.72;4994588;28;45872;-80
2021/08/06 07:21:46;;;;;;;;;0.50;0.50;;;;;19.87;62.24;100163.53;4988637;28;45405;-79
2021/08/06 07:24:11;;;;;;;;;1.50;0.25;;;;;19.83;62.09;100151.19;4999115;28;45695;-79
2021/08/06 07:26:37;;;;;;;;;1.75;0.50;;;;;19.69;62.14;100144.16;4996984;28;45484;-79
2021/08/06 07:29:05;;;;;;;;;0.50;0.50;;;;;19.69;62.12;100146.88;4997985;28;45419;-76
2021/08/06 07:31:30;;;;;;;;;0.00;0.00;;;;;19.74;62.37;100155.47;4997081;28;45483;-77
2021/08/06 07:33:56;;;;;;;;;1.00;1.00;;;;;19.91;61.89;100176.69;4996935;28;45512;-75
2021/08/06 07:36:21;;;;;;;;;0.50;0.00;;;;;19.94;62.06;100181.00;4999099;28;45332;-75
2021/08/06 07:38:46;;;;;;;;;1.50;0.00;;;;;19.74;62.00;100136.53;4998293;28;45502;-75
2021/08/06 07:41:12;;;;;;;;;0.00;0.00;;;;;19.78;62.00;100146.16;4998890;28;45736;-74
2021/08/06 07:43:37;;;;;;;;;0.25;0.25;;;;;19.89;62.08;100183.22;4998097;28;45668;-75
2021/08/06 07:46:02;;;;;;;;;0.00;0.00;;;;;19.80;61.80;100169.41;4999239;28;45290;-75
2021/08/06 07:48:28;;;;;;;;;0.00;0.00;;;;;19.89;62.07;100180.50;4998250;28;45357;-75
2021/08/06 07:50:53;;;;;;;;;1.00;1.00;;;;;19.95;61.96;100188.13;5012290;28;45416;-74
2021/08/06 07:53:18;;;;;;;;;2.50;0.00;;;;;19.87;61.42;100171.66;4996983;28;45598;-74
2021/08/06 07:55:44;;;;;;;;;0.75;0.00;;;;;19.96;61.55;100196.16;4998562;28;46351;-74
2021/08/06 07:58:09;;;;;;;;;0.25;0.25;;;;;19.93;61.57;100196.38;4998612;28;45450;-74
2021/08/06 08:00:35;;;;;;;;;2.00;0.25;;;;;19.95;61.99;100191.69;4998146;28;45560;-74
2021/08/06 08:03:00;;;;;;;;;0.50;0.00;;;;;19.93;62.11;100181.97;4998238;28;45719;-74
2021/08/06 08:05:26;;;;;;;;;0.25;0.00;;;;;19.99;61.76;100195.88;5012954;28;47457;-75
2021/08/06 08:07:51;;;;;;;;;0.25;0.00;;;;;19.90;62.33;100188.50;4998717;28;45499;-72
2021/08/06 08:10:17;;;;;;;;;0.00;0.00;;;;;19.93;62.17;100198.22;4997863;28;45461;-77
2021/08/06 08:12:42;;;;;;;;;1.75;0.00;;;;;19.94;62.21;100203.50;4999230;28;45325;-77
2021/08/06 08:15:08;;;;;;;;;0.00;0.00;;;;;19.80;62.26;100180.25;4998502;28;45482;-77
2021/08/06 08:17:33;;;;;;;;;2.00;0.75;;;;;19.93;62.65;100200.91;4998667;28;45558;-74
2021/08/06 08:19:59;;;;;;;;;1.00;1.00;;;;;19.88;62.66;100189.59;4996584;28;45479;-76
2021/08/06 08:22:30;;;;;;;;;0.25;0.25;;;;;19.86;62.81;100197.00;4999052;28;45308;-75
2021/08/06 08:24:55;;;;;;;;;1.00;1.00;;;;;19.89;62.14;100205.72;4998681;28;46283;-73
2021/08/06 08:27:21;;;;;;;;;0.75;0.75;;;;;19.91;62.32;100192.94;4999142;28;45423;-70
2021/08/06 08:29:47;;;;;;;;;0.25;0.25;;;;;19.82;61.92;100176.56;4998338;28;45525;-72
2021/08/06 08:32:14;;;;;;;;;1.75;1.00;;;;;19.95;62.30;100205.25;4998009;28;45665;-74
2021/08/06 08:34:40;;;;;;;;;0.25;0.25;;;;;20.02;62.12;100207.47;5001826;28;45391;-73
2021/08/06 08:37:05;;;;;;;;;3.00;1.00;;;;;19.96;62.02;100197.97;5000422;28;45445;-72
2021/08/06 08:39:30;;;;;;;;;0.50;0.50;;;;;20.01;61.72;100200.31;5001476;28;45471;-72
2021/08/06 08:42:00;;;;;;;;;2.00;1.00;;;;;20.03;62.17;100198.34;5001979;28;45379;-72
2021/08/06 08:44:26;;;;;;;;;0.00;0.00;;;;;20.01;61.82;100200.31;5002213;28;46341;-73
2021/08/06 08:46:52;;;;;;;;;0.00;0.00;;;;;20.09;61.74;100204.13;5002186;28;45466;-72
2021/08/06 08:49:23;;;;;;;;;0.00;0.00;;;;;20.05;61.53;100199.94;5000459;28;45475;-73
2021/08/06 08:51:50;;;;;;;;;0.50;0.50;;;;;20.12;61.74;100208.44;4987253;28;45351;-73
2021/08/06 08:54:15;;;;;;;;;0.75;0.75;;;;;20.11;61.90;100201.28;5001496;28;45980;-73
2021/08/06 08:56:43;;;;;;;;;0.00;0.00;;;;;20.14;61.49;100215.44;5002041;28;45296;-73
2021/08/06 08:59:08;;;;;;;;;0.00;0.00;;;;;20.19;61.21;100220.50;5002007;28;45315;-72
2021/08/06 09:01:34;;;;;;;;;1.00;1.00;;;;;20.16;61.54;100210.78;5001364;28;45419;-72
2021/08/06 09:03:59;;;;;;;;;0.50;0.50;;;;;20.23;61.61;100218.41;5001741;28;45478;-70
2021/08/06 09:06:42;;;;;;;;;1.00;1.00;;;;;20.23;61.54;100207.56;5001664;28;45394;-71
2021/08/06 09:09:20;;;;;;;;;0.00;0.00;;;;;20.24;61.38;100218.28;5001563;28;45367;-71
2021/08/06 09:11:46;;;;;;;;;1.00;0.00;;;;;20.26;61.12;100224.44;4987431;28;45782;-71
2021/08/06 09:14:17;;;;;;;;;2.75;0.00;;;;;20.19;60.88;100209.66;5001453;28;46343;-72
2021/08/06 09:16:57;;;;;;;;;1.00;0.00;;;;;20.35;61.17;100239.94;5001631;28;45521;-72
2021/08/06 09:19:24;;;;;;;;;0.00;0.00;;;;;20.33;61.23;100227.50;5001039;28;45376;-72
2021/08/06 09:21:50;;;;;;;;;0.00;0.00;;;;;20.24;61.21;100215.56;5016605;28;45472;-72
2021/08/06 09:24:16;;;;;;;;;0.00;0.00;;;;;20.43;61.89;100233.91;5001374;28;45509;-72
2021/08/06 09:26:52;;;;;;;;;1.00;1.00;;;;;20.26;61.23;100212.72;4999985;28;45783;-72
2021/08/06 09:29:21;;;;;;;;;0.00;0.00;;;;;20.31;61.22;100216.81;4999952;28;45552;-72
2021/08/06 09:32:00;;;;;;;;;0.75;0.00;;;;;20.45;61.04;100241.94;5000707;28;45450;-72
2021/08/06 09:34:31;;;;;;;;;1.00;1.00;;;;;20.41;61.04;100229.59;4987704;28;45447;-72
2021/08/06 09:37:01;;;;;;;;;4.25;3.25;;;;;20.42;60.62;100232.19;5000460;28;45444;-72
2021/08/06 09:39:36;;;;;;;;;7.00;7.00;;;;;20.55;60.98;100254.59;5000785;28;45459;-73
2021/08/06 09:42:02;;;;;;;;;4.00;3.00;;;;;20.52;61.30;100245.84;5000739;28;45817;-72
2021/08/06 09:44:29;;;;;;;;;26.25;21.00;;;;;20.57;61.27;100259.88;4999898;28;46497;-72
2021/08/06 09:46:55;;;;;;;;;32.00;29.00;;;;;20.48;61.74;100242.53;5000897;28;45389;-72
2021/08/06 09:49:20;;;;;;;;;37.75;31.25;;;;;20.54;61.72;100243.88;4999394;28;45320;-73
2021/08/06 09:51:51;;;;;;;;;27.75;24.25;;;;;20.60;61.31;100247.91;5000538;28;45518;-72
2021/08/06 09:54:28;;;;;;;;;14.25;13.25;;;;;20.40;61.56;100219.72;4999122;28;48571;-74
2021/08/06 09:57:26;;;;;;;;;6.00;4.75;;;;;20.38;61.65;100211.75;5012954;28;45803;-78
2021/08/06 09:59:54;;;;;;;;;3.25;3.00;;;;;20.63;61.65;100244.97;4978089;28;45452;-81
2021/08/06 10:02:23;;;;;;;;;1.25;1.25;;;;;20.65;61.53;100246.59;4998421;28;45327;-76
2021/08/06 10:05:10;;;;;;;;;1.00;0.00;;;;;20.70;61.60;100248.94;5001255;28;46770;-78
2021/08/06 10:07:41;;;;;;;;;2.50;1.00;;;;;20.70;60.97;100249.78;4993874;28;45244;-77
2021/08/06 10:10:10;;;;;;;;;0.00;0.00;;;;;20.64;60.88;100231.31;5000468;28;45696;-78
2021/08/06 10:12:36;;;;;;;;;2.50;1.00;;;;;20.71;60.88;100223.50;4999342;28;45554;-78
2021/08/06 10:15:02;;;;;;;;;0.75;0.75;;;;;20.79;60.44;100240.03;4999566;28;48444;-75
2021/08/06 10:17:28;;;;;;;;;1.25;1.00;;;;;20.72;60.85;100227.97;5000718;28;45384;-78
2021/08/06 10:19:53;;;;;;;;;2.00;0.50;;;;;20.85;60.95;100247.66;5000161;28;45236;-78
2021/08/06 10:22:19;;;;;;;;;0.00;0.00;;;;;20.85;60.36;100244.09;5000726;28;45546;-78
2021/08/06 10:24:49;;;;;;;;;1.00;1.00;;;;;20.88;60.21;100255.53;5000773;28;46035;-78
2021/08/06 10:27:19;;;;;;;;;1.00;0.00;;;;;20.92;60.93;100248.84;5000598;28;45446;-86
2021/08/06 10:30:03;;;;;;;;;3.00;1.00;;;;;20.97;60.40;100253.03;4999424;28;45469;-79
2021/08/06 10:32:30;;;;;;;;;1.00;0.00;;;;;20.90;60.05;100244.56;4999657;28;45311;-79
2021/08/06 10:35:17;;;;;;;;;1.00;1.00;;;;;20.96;59.64;100252.16;4999758;28;47944;-79
2021/08/06 10:37:59;;;;;;;;;0.25;0.25;;;;;21.05;59.47;100267.69;4999298;28;45399;-78
2021/08/06 10:40:34;;;;;;;;;2.00;1.75;;;;;21.08;59.49;100264.72;5001352;28;45468;-78
2021/08/06 10:43:20;;;;;;;;;0.00;0.00;;;;;21.03;59.67;100266.97;5007509;28;45726;-76
2021/08/06 10:45:46;;;;;;;;;0.00;0.00;;;;;21.09;59.30;100269.13;4973555;28;46328;-76
2021/08/06 10:48:26;;;;;;;;;1.50;0.50;;;;;21.09;59.16;100261.00;4996557;28;45513;-76
2021/08/06 10:51:16;;;;;;;;;1.00;1.00;;;;;21.14;59.12;100259.75;4995375;28;45797;-78
2021/08/06 10:54:09;;;;;;;;;1.00;1.00;;;;;21.09;59.18;100252.84;4997005;28;45654;-81
2021/08/06 10:56:36;;;;;;;;;0.00;0.00;;;;;21.19;59.30;100261.09;5004250;28;46432;-76
2021/08/06 10:59:10;;;;;;;;;2.50;1.00;;;;;21.22;58.93;100259.97;4996391;28;45709;-80
2021/08/06 11:01:42;;;;;;;;;0.75;0.75;;;;;21.18;59.10;100242.22;4995857;28;45591;-79
2021/08/06 11:04:13;;;;;;;;;0.75;0.75;;;;;21.25;59.16;100259.69;4996776;28;45685;-81
2021/08/06 11:06:47;;;;;;;;;0.50;0.50;;;;;21.26;58.92;100258.72;4996673;28;46099;-80
2021/08/06 11:09:24;;;;;;;;;1.00;1.00;;;;;21.29;58.53;100250.31;4998367;28;45777;-80
2021/08/06 11:11:53;;;;;;;;;1.25;1.00;;;;;21.31;58.53;100244.75;5001485;28;45377;-77
2021/08/06 11:14:38;;;;;;;;;1.75;1.25;;;;;21.33;58.80;100251.75;4996902;28;45464;-77
2021/08/06 11:17:17;;;;;;;;;2.00;0.00;;;;;21.29;59.22;100247.59;4994884;28;46263;-82
2021/08/06 11:19:43;;;;;;;;;1.75;1.00;;;;;21.32;58.38;100247.34;4996472;28;45830;-82
2021/08/06 11:22:17;;;;;;;;;1.00;1.00;;;;;21.35;58.57;100255.22;4996148;28;45778;-79
2021/08/06 11:25:05;;;;;;;;;2.00;0.75;;;;;21.30;58.25;100243.91;4996695;28;45898;-81
2021/08/06 11:27:35;;;;;;;;;0.00;0.00;;;;;21.40;58.49;100263.84;4996383;28;45509;-81
2021/08/06 11:30:12;;;;;;;;;1.25;1.00;;;;;21.42;57.58;100269.13;4996311;28;46113;-80